Time;durP1;ratioP1;P1;durP2;ratioP2;P2;SDS_P1;SDS_P2;PMS_P1;PMS_P2;Temp;Humidity;BMP_temperature;BMP_pressure;BME280_temperature;BME280_humidity;BME280_pressure;Samples;Min_cycle;Max_cycle;Signal;HPM_P1;HPM_P2
2022/03/21 00:00:44;;;;;;;75.80;56.28;;;16.80;51.20;;;;;;4985778;28;89875;-74
2022/03/21 00:03:12;;;;;;;75.20;56.58;;;16.80;51.20;;;;;;4987406;28;89408;-74
2022/03/21 00:05:38;;;;;;;77.18;56.28;;;16.70;51.20;;;;;;4977278;27;90114;-74
2022/03/21 00:08:04;;;;;;;75.13;56.63;;;16.70;51.30;;;;;;4986568;28;90024;-74
2022/03/21 00:10:34;;;;;;;76.85;57.45;;;16.70;51.20;;;;;;4981787;28;94014;-74
2022/03/21 00:13:01;;;;;;;75.88;56.10;;;16.60;51.20;;;;;;4979557;28;91586;-74
2022/03/21 00:15:29;;;;;;;76.70;57.13;;;16.60;51.30;;;;;;4979803;28;91453;-74
2022/03/21 00:17:55;;;;;;;77.07;56.88;;;16.60;51.20;;;;;;4984745;28;90988;-74
2022/03/21 00:20:21;;;;;;;77.30;57.08;;;16.60;51.20;;;;;;4985452;28;89845;-74
2022/03/21 00:22:46;;;;;;;75.78;57.03;;;16.60;51.20;;;;;;4992342;28;89843;-74
2022/03/21 00:25:12;;;;;;;76.35;56.78;;;16.50;51.90;;;;;;4988158;28;89785;-74
2022/03/21 00:27:38;;;;;;;76.60;57.55;;;16.50;51.30;;;;;;4980402;28;90806;-74
2022/03/21 00:30:05;;;;;;;73.63;55.78;;;16.50;51.30;;;;;;4980064;28;90052;-74
2022/03/21 00:32:31;;;;;;;76.75;57.10;;;16.50;51.30;;;;;;4985894;28;91357;-74
2022/03/21 00:34:57;;;;;;;75.38;56.63;;;16.40;51.20;;;;;;4975700;27;94330;-74
2022/03/21 00:37:23;;;;;;;76.57;55.95;;;16.40;51.40;;;;;;4974850;28;91417;-74
2022/03/21 00:39:51;;;;;;;78.38;57.65;;;16.40;51.30;;;;;;4978125;28;96061;-74
2022/03/21 00:42:17;;;;;;;73.97;56.35;;;16.40;51.20;;;;;;4980161;28;89939;-74
2022/03/21 00:44:43;;;;;;;76.60;57.00;;;16.40;51.30;;;;;;4983044;28;91266;-74
2022/03/21 00:47:09;;;;;;;74.07;56.05;;;16.30;51.30;;;;;;4982958;28;93313;-74
2022/03/21 00:49:34;;;;;;;76.53;56.70;;;16.30;51.40;;;;;;4978884;28;93313;-73
2022/03/21 00:52:00;;;;;;;77.78;56.85;;;16.30;51.40;;;;;;4991286;27;89388;-73
2022/03/21 00:54:26;;;;;;;73.47;55.80;;;16.30;51.40;;;;;;4975462;28;91960;-74
2022/03/21 00:56:51;;;;;;;75.03;56.40;;;16.30;51.30;;;;;;4987875;28;90193;-73
2022/03/21 00:59:17;;;;;;;76.35;57.35;;;16.20;51.40;;;;;;4976377;28;91247;-74
2022/03/21 01:01:43;;;;;;;76.25;56.42;;;16.20;51.40;;;;;;4979397;28;90738;-74
2022/03/21 01:04:09;;;;;;;74.38;55.78;;;16.20;51.40;;;;;;4971551;28;91288;-74
2022/03/21 01:06:35;;;;;;;75.63;56.00;;;16.20;51.50;;;;;;4982130;28;91769;-74
2022/03/21 01:09:01;;;;;;;76.72;57.05;;;16.20;51.40;;;;;;4979094;28;91898;-74
2022/03/21 01:11:27;;;;;;;75.55;56.80;;;16.10;52.00;;;;;;4982084;28;90431;-73
2022/03/21 01:13:53;;;;;;;73.90;56.03;;;16.10;51.50;;;;;;4979801;28;90324;-74
2022/03/21 01:16:18;;;;;;;73.35;56.10;;;16.10;51.50;;;;;;4980097;28;90460;-73
2022/03/21 01:18:47;;;;;;;74.50;56.10;;;16.10;51.40;;;;;;4985965;28;95353;-74
2022/03/21 01:21:13;;;;;;;73.72;55.30;;;16.10;51.30;;;;;;4993257;28;89870;-74
2022/03/21 01:23:39;;;;;;;73.60;55.72;;;16.10;51.40;;;;;;4989460;28;92607;-74
2022/03/21 01:26:05;;;;;;;73.47;56.10;;;16.10;51.50;;;;;;4977313;28;91604;-74
2022/03/21 01:28:30;;;;;;;75.63;56.55;;;16.00;51.40;;;;;;4970831;28;94754;-74
2022/03/21 01:30:56;;;;;;;73.43;56.15;;;16.00;51.50;;;;;;4986785;28;90801;-74
2022/03/21 01:33:22;;;;;;;75.07;56.15;;;16.00;51.40;;;;;;4987459;28;89505;-74
2022/03/21 01:35:47;;;;;;;73.50;55.35;;;16.00;51.50;;;;;;4973172;28;92732;-74
2022/03/21 01:38:13;;;;;;;74.95;56.03;;;16.00;51.50;;;;;;4984608;27;90968;-74
2022/03/21 01:40:39;;;;;;;74.85;55.92;;;15.90;51.30;;;;;;4990376;28;89547;-74
2022/03/21 01:43:11;;;;;;;73.40;56.20;;;16.00;51.50;;;;;;4982076;28;93643;-74
2022/03/21 01:45:37;;;;;;;74.13;55.72;;;16.00;51.40;;;;;;4980739;28;89983;-74
2022/03/21 01:48:03;;;;;;;74.95;56.35;;;16.00;51.60;;;;;;4978275;28;93086;-74
2022/03/21 01:50:29;;;;;;;75.43;56.67;;;16.00;51.50;;;;;;4984584;28;90350;-74
2022/03/21 01:55:44;;;;;;;75.95;56.75;;;16.10;51.50;;;;;;4984523;28;90305;-74
2022/03/21 01:58:13;;;;;;;74.35;55.78;;;16.20;51.20;;;;;;4974506;28;91184;-74
2022/03/21 02:00:40;;;;;;;73.25;55.35;;;16.20;51.10;;;;;;4986812;28;90956;-74
2022/03/21 02:03:06;;;;;;;74.72;55.42;;;16.30;51.00;;;;;;4984470;28;90365;-74
2022/03/21 02:05:36;;;;;;;75.35;56.70;;;16.30;50.90;;;;;;4988214;28;91461;-73
2022/03/21 02:08:02;;;;;;;73.22;55.42;;;16.40;50.80;;;;;;4983996;28;91256;-73
2022/03/21 02:10:29;;;;;;;75.70;55.20;;;16.50;50.60;;;;;;4983770;28;93160;-74
2022/03/21 02:12:55;;;;;;;73.07;55.20;;;16.50;50.50;;;;;;4985790;28;90625;-74
2022/03/21 02:15:21;;;;;;;73.97;56.10;;;16.60;50.30;;;;;;4983066;28;91152;-74
2022/03/21 02:17:47;;;;;;;73.32;55.22;;;16.60;50.30;;;;;;4986049;28;90346;-74
2022/03/21 02:20:18;;;;;;;72.72;54.90;;;16.60;50.10;;;;;;4975227;28;90878;-73
2022/03/21 02:23:07;;;;;;;74.23;55.97;;;16.60;50.00;;;;;;4985123;28;92502;-74
2022/03/21 02:25:41;;;;;;;71.68;54.90;;;16.60;50.00;;;;;;4973131;28;90998;-74
2022/03/21 02:28:09;;;;;;;75.30;56.05;;;16.60;49.80;;;;;;5000594;27;91497;-73
2022/03/21 02:30:38;;;;;;;73.80;55.20;;;16.60;49.70;;;;;;4985333;28;88711;-73
2022/03/21 02:33:05;;;;;;;71.97;54.83;;;16.60;49.80;;;;;;4993575;28;91058;-74
2022/03/21 02:35:32;;;;;;;73.22;54.83;;;16.60;49.60;;;;;;4983370;28;91235;-74
2022/03/21 02:37:59;;;;;;;75.45;55.88;;;16.60;49.60;;;;;;4990467;28;91297;-74
2022/03/21 02:40:28;;;;;;;72.97;54.88;;;16.60;49.60;;;;;;4977785;28;91082;-73
2022/03/21 02:42:54;;;;;;;72.32;54.17;;;16.60;49.60;;;;;;4994550;28;91445;-74
2022/03/21 02:45:20;;;;;;;73.57;54.28;;;16.60;49.70;;;;;;4972393;28;90816;-73
2022/03/21 02:47:46;;;;;;;72.20;54.80;;;16.60;49.60;;;;;;4986171;28;89608;-74
2022/03/21 02:50:36;;;;;;;72.45;55.05;;;16.60;49.60;;;;;;4980730;27;90191;-74
2022/03/21 02:53:03;;;;;;;72.95;54.60;;;16.50;49.50;;;;;;4986611;28;89399;-74
2022/03/21 02:55:29;;;;;;;72.40;55.00;;;16.50;49.50;;;;;;4983605;28;92092;-74
2022/03/21 02:57:54;;;;;;;72.88;54.67;;;16.50;49.50;;;;;;4988714;28;99534;-74
2022/03/21 03:00:20;;;;;;;75.07;54.92;;;16.40;49.50;;;;;;4983403;28;90472;-73
2022/03/21 03:02:45;;;;;;;73.03;54.58;;;16.40;49.50;;;;;;4987758;28;95528;-74
2022/03/21 03:05:11;;;;;;;73.25;54.40;;;16.40;49.50;;;;;;4988025;28;89479;-74
2022/03/21 03:07:37;;;;;;;72.05;54.92;;;16.40;49.50;;;;;;4977991;28;90032;-73
2022/03/21 03:10:03;;;;;;;73.40;54.55;;;16.30;49.40;;;;;;4976867;27;90490;-73
2022/03/21 03:12:28;;;;;;;71.95;54.22;;;16.30;49.60;;;;;;4987370;28;90491;-74
2022/03/21 03:14:54;;;;;;;72.07;54.42;;;16.30;49.60;;;;;;4988768;28;90333;-74
2022/03/21 03:17:20;;;;;;;72.82;54.25;;;16.30;49.60;;;;;;4987002;28;90048;-74
2022/03/21 03:19:45;;;;;;;72.03;54.55;;;16.30;49.70;;;;;;4980058;28;91249;-74
2022/03/21 03:22:13;;;;;;;72.18;54.65;;;16.30;49.70;;;;;;4985257;28;91265;-74
2022/03/21 03:24:40;;;;;;;72.93;54.67;;;16.20;49.60;;;;;;4979492;28;90523;-73
2022/03/21 03:27:06;;;;;;;72.40;54.58;;;16.20;49.80;;;;;;4985791;28;92134;-74
2022/03/21 03:29:32;;;;;;;73.45;54.00;;;16.10;49.70;;;;;;4986153;28;89881;-74
2022/03/21 03:32:00;;;;;;;71.78;54.55;;;16.20;49.80;;;;;;4983067;28;90818;-74
2022/03/21 03:34:26;;;;;;;72.00;53.95;;;16.10;49.70;;;;;;4984398;28;89801;-74
2022/03/21 03:36:52;;;;;;;71.07;54.05;;;16.10;49.70;;;;;;4979732;28;91045;-74
2022/03/21 03:39:18;;;;;;;70.05;54.15;;;16.00;49.60;;;;;;4984254;28;91315;-76
2022/03/21 03:41:44;;;;;;;71.35;53.70;;;16.00;49.70;;;;;;4980106;28;90667;-74
2022/03/21 03:44:10;;;;;;;72.50;54.45;;;16.00;49.70;;;;;;4990912;28;91991;-74
2022/03/21 03:46:36;;;;;;;74.25;55.00;;;16.00;49.90;;;;;;4989636;28;89666;-73
2022/03/21 03:49:02;;;;;;;71.57;53.97;;;16.00;49.90;;;;;;4989761;28;90039;-74
2022/03/21 03:51:27;;;;;;;71.38;53.92;;;15.90;49.80;;;;;;4980860;28;92746;-74
2022/03/21 03:53:53;;;;;;;72.95;54.35;;;15.90;49.80;;;;;;4982382;28;92653;-74
2022/03/21 03:56:19;;;;;;;72.60;54.83;;;15.90;49.90;;;;;;4972800;28;90065;-74
2022/03/21 03:58:44;;;;;;;71.40;54.58;;;15.90;49.90;;;;;;4981982;28;90106;-74
2022/03/21 04:01:10;;;;;;;71.60;53.53;;;15.80;49.80;;;;;;4983980;28;89878;-74
2022/03/21 04:03:44;;;;;;;70.85;54.42;;;15.90;50.00;;;;;;4985600;28;89695;-74
2022/03/21 04:06:12;;;;;;;72.72;54.38;;;15.80;49.90;;;;;;4982604;28;90722;-76
2022/03/21 04:08:38;;;;;;;71.05;53.80;;;15.80;50.00;;;;;;4987790;28;90090;-74
2022/03/21 04:11:04;;;;;;;71.53;53.78;;;15.70;49.90;;;;;;4983837;28;92869;-75
2022/03/21 04:13:30;;;;;;;71.25;54.17;;;15.80;50.00;;;;;;4987187;28;91013;-73
2022/03/21 04:15:55;;;;;;;70.97;53.95;;;15.70;50.00;;;;;;4980000;28;91255;-74
2022/03/21 04:18:21;;;;;;;72.20;53.88;;;15.70;50.10;;;;;;4979944;28;90280;-74
2022/03/21 04:20:50;;;;;;;71.25;53.67;;;15.70;50.10;;;;;;4969933;28;90968;-74
2022/03/21 04:23:17;;;;;;;73.05;54.53;;;15.70;50.10;;;;;;4981740;28;89867;-74
2022/03/21 04:25:43;;;;;;;71.88;54.17;;;15.70;50.30;;;;;;4983775;28;90555;-74
2022/03/21 04:28:14;;;;;;;71.55;54.28;;;15.70;50.50;;;;;;4982595;28;101064;-74
2022/03/21 04:30:41;;;;;;;72.23;54.33;;;15.70;50.50;;;;;;4995136;28;95690;-74
2022/03/21 04:33:09;;;;;;;74.35;55.13;;;15.80;50.60;;;;;;4994345;28;90103;-74
2022/03/21 04:35:36;;;;;;;72.00;54.17;;;15.90;50.50;;;;;;4975381;28;91199;-74
2022/03/21 04:38:02;;;;;;;74.28;55.13;;;16.00;50.50;;;;;;4977082;28;90172;-74
2022/03/21 04:40:28;;;;;;;71.47;53.95;;;16.10;50.30;;;;;;4989955;28;92340;-74
2022/03/21 04:42:54;;;;;;;72.47;54.33;;;16.20;50.00;;;;;;4987280;28;90243;-74
2022/03/21 04:45:20;;;;;;;70.57;53.58;;;16.30;49.70;;;;;;4983405;28;90928;-73
2022/03/21 04:47:46;;;;;;;76.93;54.88;;;16.30;49.60;;;;;;4988209;28;91403;-73
2022/03/21 04:50:13;;;;;;;70.97;53.80;;;16.40;49.40;;;;;;4983394;28;90221;-73
2022/03/21 04:52:39;;;;;;;72.35;54.22;;;16.50;49.20;;;;;;4984562;28;95259;-73
2022/03/21 04:55:08;;;;;;;71.55;53.88;;;16.50;49.20;;;;;;4980017;28;89720;-74
2022/03/21 04:57:35;;;;;;;73.07;54.40;;;16.50;48.90;;;;;;4980120;28;90458;-74
2022/03/21 05:00:04;;;;;;;70.57;53.95;;;16.60;48.90;;;;;;4977008;28;93897;-73
2022/03/21 05:02:30;;;;;;;71.20;53.97;;;16.60;48.60;;;;;;4982415;28;94905;-74
2022/03/21 05:04:55;;;;;;;73.05;54.33;;;16.70;48.60;;;;;;4972330;28;90949;-74
2022/03/21 05:07:21;;;;;;;72.93;55.15;;;16.60;48.40;;;;;;4982016;28;90610;-74
2022/03/21 05:09:48;;;;;;;70.28;53.42;;;16.60;48.30;;;;;;4982620;28;93260;-74
2022/03/21 05:12:14;;;;;;;70.57;53.38;;;16.70;48.40;;;;;;4978749;28;91220;-74
2022/03/21 05:14:40;;;;;;;69.88;53.70;;;16.70;48.30;;;;;;4978825;28;90376;-74
2022/03/21 05:17:09;;;;;;;72.68;54.55;;;16.70;48.20;;;;;;4981460;28;91030;-74
2022/03/21 05:19:35;;;;;;;70.60;53.65;;;16.60;48.20;;;;;;4977992;28;92280;-74
2022/03/21 05:22:05;;;;;;;72.45;54.20;;;16.60;48.10;;;;;;4973580;28;89993;-74
2022/03/21 05:32:44;;;;;;;72.35;53.72;;;16.60;49.00;;;;;;4986536;28;90388;-74
2022/03/21 05:37:54;;;;;;;70.85;53.67;;;16.80;49.00;;;;;;4991312;28;90077;-74
2022/03/21 05:40:31;;;;;;;73.45;53.83;;;16.80;49.00;;;;;;4975900;28;91887;-74
2022/03/21 05:42:57;;;;;;;71.72;53.75;;;16.90;48.90;;;;;;4984631;28;91536;-74
2022/03/21 05:45:23;;;;;;;71.70;53.85;;;17.10;48.80;;;;;;4984646;28;89465;-75
2022/03/21 05:50:36;;;;;;;71.60;53.97;;;17.20;48.60;;;;;;4983035;28;90203;-77
2022/03/21 05:53:06;;;;;;;69.75;53.28;;;17.30;48.50;;;;;;4988490;28;91824;-77
2022/03/21 05:55:32;;;;;;;72.00;54.20;;;17.40;48.30;;;;;;4987025;28;90579;-73
2022/03/21 05:57:58;;;;;;;73.40;54.05;;;17.50;48.10;;;;;;4973717;28;91661;-72
2022/03/21 06:00:27;;;;;;;70.82;53.85;;;17.60;48.00;;;;;;4976947;28;90288;-74
2022/03/21 06:02:53;;;;;;;73.00;54.95;;;17.60;47.70;;;;;;4982302;28;90411;-73
2022/03/21 06:05:22;;;;;;;70.55;53.20;;;17.70;48.30;;;;;;4975547;28;89801;-75
2022/03/21 06:07:49;;;;;;;71.55;53.88;;;17.70;47.60;;;;;;4982657;28;90937;-74
2022/03/21 06:10:15;;;;;;;72.47;54.10;;;17.70;47.50;;;;;;4980889;28;90162;-75
2022/03/21 06:12:41;;;;;;;71.95;53.78;;;17.80;47.70;;;;;;4980377;28;90034;-73
2022/03/21 06:15:08;;;;;;;72.63;53.55;;;17.80;47.60;;;;;;4983401;28;91742;-74
2022/03/21 06:17:41;;;;;;;71.60;53.33;;;17.90;48.40;;;;;;4981163;28;93128;-75
2022/03/21 06:20:12;;;;;;;72.72;53.58;;;18.00;47.80;;;;;;4984646;28;92183;-75
2022/03/21 06:22:39;;;;;;;72.97;53.85;;;18.00;47.60;;;;;;4978354;28;91450;-75
2022/03/21 06:25:06;;;;;;;71.72;53.25;;;18.00;47.50;;;;;;4988087;28;90097;-77
2022/03/21 06:27:35;;;;;;;76.88;54.33;;;18.10;47.40;;;;;;4978999;27;89982;-74
2022/03/21 06:30:02;;;;;;;72.15;54.33;;;18.10;47.20;;;;;;4980990;28;90781;-72
2022/03/21 06:32:28;;;;;;;76.10;54.67;;;18.10;47.30;;;;;;4979671;28;90894;-74
2022/03/21 06:34:54;;;;;;;90.32;55.88;;;18.10;47.40;;;;;;4975545;28;92010;-76
2022/03/21 06:37:20;;;;;;;84.28;56.20;;;18.10;48.40;;;;;;4984047;28;93990;-78
2022/03/21 06:39:45;;;;;;;84.22;55.20;;;18.20;48.50;;;;;;4986498;28;90745;-76
2022/03/21 06:42:13;;;;;;;88.60;56.20;;;18.20;48.70;;;;;;4973909;28;94783;-76
2022/03/21 06:44:40;;;;;;;89.55;56.10;;;18.20;49.00;;;;;;4982880;28;90899;-77
2022/03/21 06:47:06;;;;;;;87.53;56.50;;;18.30;49.00;;;;;;4976159;28;90133;-76
2022/03/21 06:49:32;;;;;;;88.18;56.90;;;18.40;49.00;;;;;;4974477;28;96334;-77
2022/03/21 06:51:58;;;;;;;86.20;56.20;;;18.40;48.80;;;;;;4971687;27;90290;-74
2022/03/21 06:54:24;;;;;;;89.93;57.28;;;18.50;49.00;;;;;;4972005;28;91739;-73
2022/03/21 06:56:49;;;;;;;86.65;56.35;;;18.50;49.00;;;;;;4977601;28;91059;-73
2022/03/21 06:59:15;;;;;;;86.90;56.55;;;18.50;48.80;;;;;;4978738;28;90054;-72
2022/03/21 07:01:41;;;;;;;86.13;56.88;;;18.50;48.80;;;;;;4976642;28;90379;-73
2022/03/21 07:04:06;;;;;;;85.25;56.20;;;18.50;48.70;;;;;;4981845;28;90499;-72
2022/03/21 07:06:32;;;;;;;87.35;56.15;;;18.40;48.50;;;;;;4982277;28;91212;-73
2022/03/21 07:08:57;;;;;;;87.30;55.70;;;18.40;48.90;;;;;;4984487;28;91436;-72
2022/03/21 07:11:23;;;;;;;87.72;56.65;;;18.40;48.50;;;;;;4989425;28;90847;-72
2022/03/21 07:13:49;;;;;;;84.20;55.67;;;18.40;48.50;;;;;;4986191;28;91579;-73
2022/03/21 07:16:16;;;;;;;86.30;56.35;;;18.40;48.50;;;;;;4983006;28;96301;-73
2022/03/21 07:18:45;;;;;;;81.18;55.63;;;18.30;48.30;;;;;;4988655;28;90021;-72
2022/03/21 07:21:15;;;;;;;78.60;55.35;;;18.30;48.30;;;;;;4987310;28;89832;-72
2022/03/21 07:23:41;;;;;;;80.28;55.28;;;18.30;48.40;;;;;;4983112;28;89627;-73
2022/03/21 07:26:06;;;;;;;78.60;55.22;;;18.30;48.40;;;;;;4990444;28;92276;-72
2022/03/21 07:28:32;;;;;;;80.25;55.03;;;18.20;48.40;;;;;;4987319;28;93071;-72
2022/03/21 07:30:57;;;;;;;82.53;55.15;;;18.20;48.40;;;;;;4972214;28;90372;-72
2022/03/21 07:33:31;;;;;;;78.65;54.55;;;18.20;48.40;;;;;;4976534;28;91260;-73
2022/03/21 07:35:56;;;;;;;80.70;54.92;;;18.10;48.50;;;;;;4970949;27;91557;-73
2022/03/21 07:38:22;;;;;;;81.28;54.33;;;18.10;48.50;;;;;;4991859;28;91163;-73
2022/03/21 07:40:49;;;;;;;80.57;54.95;;;18.10;48.60;;;;;;4983564;28;91006;-72
2022/03/21 07:43:15;;;;;;;78.75;54.60;;;18.10;48.70;;;;;;4967876;28;90390;-73
2022/03/21 07:48:27;;;;;;;77.85;54.83;;;18.10;48.70;;;;;;4990987;28;90927;-73
2022/03/21 07:50:55;;;;;;;79.80;54.30;;;18.10;48.70;;;;;;4983436;28;91471;-73
2022/03/21 07:53:21;;;;;;;76.53;54.35;;;18.10;48.60;;;;;;4985024;28;90931;-73
2022/03/21 07:55:47;;;;;;;78.32;54.13;;;18.20;48.70;;;;;;4979783;28;90129;-72
2022/03/21 07:58:13;;;;;;;76.32;54.10;;;18.20;48.60;;;;;;4979693;28;92874;-73
2022/03/21 08:00:41;;;;;;;76.93;54.70;;;18.20;48.60;;;;;;4982557;28;94242;-73
2022/03/21 08:03:11;;;;;;;79.03;54.72;;;18.20;48.70;;;;;;4983971;28;91311;-73
2022/03/21 08:05:37;;;;;;;79.47;54.33;;;18.20;48.60;;;;;;4988276;28;91694;-73
2022/03/21 08:08:03;;;;;;;80.60;55.05;;;18.20;48.60;;;;;;4993361;28;90093;-73
2022/03/21 08:10:29;;;;;;;75.75;53.92;;;18.20;48.50;;;;;;4987227;28;92251;-73
2022/03/21 08:12:56;;;;;;;76.82;53.95;;;18.20;48.50;;;;;;4982884;28;91219;-73
2022/03/21 08:15:22;;;;;;;76.45;53.75;;;18.20;48.50;;;;;;4986772;28;90221;-73
2022/03/21 08:17:52;;;;;;;76.82;54.30;;;18.20;48.40;;;;;;4984717;28;94585;-73
2022/03/21 08:20:19;;;;;;;78.15;54.35;;;18.20;48.40;;;;;;4987794;28;91541;-72
2022/03/21 08:22:47;;;;;;;76.40;54.08;;;18.20;48.40;;;;;;4993720;28;90857;-73
2022/03/21 08:25:15;;;;;;;77.35;54.65;;;18.20;48.50;;;;;;5001745;28;89928;-73
2022/03/21 08:27:43;;;;;;;79.63;54.30;;;18.20;48.50;;;;;;4987921;28;90794;-73
2022/03/21 08:30:11;;;;;;;77.30;53.75;;;18.20;48.50;;;;;;4986160;28;92599;-73
2022/03/21 08:32:36;;;;;;;78.13;54.17;;;18.20;48.60;;;;;;4976018;28;90661;-74
2022/03/21 08:35:02;;;;;;;75.70;53.88;;;18.30;48.60;;;;;;4976682;28;90816;-73
2022/03/21 08:37:27;;;;;;;77.45;53.58;;;18.30;48.60;;;;;;4979688;27;91599;-73
2022/03/21 08:39:53;;;;;;;78.28;54.38;;;18.30;48.60;;;;;;4986236;28;89472;-73
2022/03/21 08:42:21;;;;;;;76.38;53.40;;;18.40;48.60;;;;;;4976399;28;90858;-71
2022/03/21 08:44:47;;;;;;;76.22;54.05;;;18.40;48.50;;;;;;4988585;28;89971;-73
2022/03/21 08:47:13;;;;;;;77.10;53.55;;;18.40;48.50;;;;;;4982141;27;92065;-73
2022/03/21 08:49:38;;;;;;;76.43;53.53;;;18.50;48.40;;;;;;4979178;28;91604;-73
2022/03/21 08:52:08;;;;;;;75.43;53.60;;;18.50;48.40;;;;;;4978329;28;91025;-73
2022/03/21 08:54:33;;;;;;;76.70;53.45;;;18.50;48.40;;;;;;4991335;28;90769;-73
2022/03/21 08:56:59;;;;;;;78.95;54.03;;;18.50;48.30;;;;;;4997752;28;92081;-73
2022/03/21 08:59:25;;;;;;;77.82;53.45;;;18.60;48.20;;;;;;4978796;28;91299;-73
2022/03/21 09:01:52;;;;;;;75.82;53.33;;;18.60;48.10;;;;;;4991734;28;91839;-74
2022/03/21 09:04:17;;;;;;;76.90;53.30;;;18.60;48.10;;;;;;4995661;28;89353;-73
2022/03/21 09:06:43;;;;;;;77.47;53.67;;;18.60;48.10;;;;;;4991385;28;90050;-73
2022/03/21 09:09:09;;;;;;;74.95;53.25;;;18.60;48.10;;;;;;4978724;28;92430;-73
2022/03/21 09:11:35;;;;;;;80.03;53.65;;;18.60;48.60;;;;;;4973358;28;92242;-76
2022/03/21 09:14:02;;;;;;;79.90;54.22;;;18.70;48.10;;;;;;4981318;28;90691;-73
2022/03/21 09:16:27;;;;;;;78.70;54.58;;;18.70;47.90;;;;;;4972173;28;95173;-75
2022/03/21 09:18:53;;;;;;;80.63;54.78;;;18.80;48.10;;;;;;4975850;28;91012;-75
2022/03/21 09:21:19;;;;;;;78.72;54.50;;;18.80;48.20;;;;;;4980860;28;89433;-75
2022/03/21 09:23:44;;;;;;;77.68;54.63;;;18.90;48.10;;;;;;4974297;28;91498;-76
2022/03/21 09:26:11;;;;;;;79.13;53.95;;;18.90;48.10;;;;;;4973976;28;91295;-77
2022/03/21 09:28:39;;;;;;;79.43;55.00;;;19.00;48.40;;;;;;4966945;27;91677;-76
2022/03/21 09:31:07;;;;;;;80.82;54.72;;;19.10;48.30;;;;;;4983121;28;89978;-76
2022/03/21 09:33:33;;;;;;;80.82;55.00;;;19.10;48.30;;;;;;4978997;28;90637;-77
2022/03/21 09:36:00;;;;;;;78.03;53.90;;;19.20;48.30;;;;;;4976512;28;90910;-77
2022/03/21 09:38:25;;;;;;;78.18;54.25;;;19.30;48.30;;;;;;4967124;28;94162;-76
2022/03/21 09:40:51;;;;;;;78.53;54.50;;;19.40;48.80;;;;;;4972050;28;90991;-76
2022/03/21 09:43:17;;;;;;;80.30;54.75;;;19.40;48.10;;;;;;4970466;28;90211;-79
2022/03/21 09:45:43;;;;;;;78.38;54.75;;;19.50;48.10;;;;;;4965829;28;94565;-80
2022/03/21 09:48:16;;;;;;;78.38;54.35;;;19.50;48.00;;;;;;4963205;28;99824;-78
2022/03/21 09:50:44;;;;;;;78.40;54.25;;;19.50;48.00;;;;;;4959618;28;95768;-78
2022/03/21 09:53:15;;;;;;;82.10;54.22;;;19.60;48.10;;;;;;4958067;28;89960;-78
2022/03/21 09:55:42;;;;;;;83.27;54.93;;;19.60;48.10;;;;;;4975532;28;92788;-77
2022/03/21 09:58:11;;;;;;;79.55;54.20;;;19.70;48.10;;;;;;4966497;27;95361;-75
2022/03/21 10:00:42;;;;;;;81.00;54.53;;;19.70;48.00;;;;;;4973433;28;92336;-77
2022/03/21 10:03:08;;;;;;;83.57;54.53;;;19.70;48.00;;;;;;4977028;28;91086;-80
2022/03/21 10:05:46;;;;;;;79.78;54.53;;;19.80;48.00;;;;;;4976343;28;91226;-78
2022/03/21 10:08:19;;;;;;;80.35;54.42;;;19.80;48.00;;;;;;4976795;28;90583;-79
2022/03/21 10:10:59;;;;;;;81.05;54.88;;;19.90;48.10;;;;;;4959126;28;90509;-78
2022/03/21 10:13:32;;;;;;;83.77;54.80;;;19.80;48.00;;;;;;4971651;28;90351;-82
2022/03/21 10:16:14;;;;;;;83.00;55.35;;;19.90;47.90;;;;;;4969431;28;90520;-77
2022/03/21 10:18:57;;;;;;;87.32;55.30;;;19.90;48.00;;;;;;4967364;28;90385;-78
2022/03/21 10:21:26;;;;;;;84.93;54.80;;;19.90;47.70;;;;;;4979370;28;91078;-79
2022/03/21 10:24:06;;;;;;;83.68;55.35;;;19.90;47.70;;;;;;4963202;28;91988;-78
2022/03/21 10:26:42;;;;;;;83.53;55.13;;;19.90;47.70;;;;;;4974657;27;91504;-78
2022/03/21 10:29:10;;;;;;;82.88;55.42;;;20.00;47.70;;;;;;4980820;28;92633;-78
2022/03/21 10:31:47;;;;;;;82.70;55.47;;;20.00;47.60;;;;;;4965959;28;91960;-79
2022/03/21 10:34:17;;;;;;;81.60;54.95;;;20.00;47.60;;;;;;4945815;28;94174;-80
2022/03/21 10:37:03;;;;;;;83.13;55.25;;;20.00;47.60;;;;;;4961707;28;95750;-82
2022/03/21 10:39:40;;;;;;;83.45;54.83;;;20.00;47.50;;;;;;4966679;28;91572;-80
2022/03/21 10:42:09;;;;;;;83.15;55.40;;;20.10;47.70;;;;;;4969085;28;90502;-78
2022/03/21 10:44:35;;;;;;;79.00;54.53;;;20.10;47.60;;;;;;4980930;28;89261;-79
2022/03/21 10:47:04;;;;;;;80.15;55.00;;;20.10;47.60;;;;;;4977474;28;96714;-80
2022/03/21 10:49:46;;;;;;;81.15;55.08;;;20.10;47.60;;;;;;4962132;28;95412;-80
2022/03/21 10:52:21;;;;;;;78.55;54.35;;;20.10;47.70;;;;;;4962926;28;95227;-79
2022/03/21 10:54:50;;;;;;;79.22;54.85;;;20.20;47.80;;;;;;4967418;28;90529;-80
2022/03/21 10:57:26;;;;;;;79.13;54.42;;;20.10;47.80;;;;;;4973781;28;93058;-78
2022/03/21 11:00:15;;;;;;;78.15;54.80;;;20.20;48.10;;;;;;4970499;28;91068;-80
2022/03/21 11:03:06;;;;;;;79.85;54.47;;;20.20;47.90;;;;;;4970496;28;90996;-79
2022/03/21 11:05:43;;;;;;;78.53;54.15;;;20.30;48.10;;;;;;4970841;28;90361;-80
2022/03/21 11:08:11;;;;;;;81.50;54.63;;;20.30;48.00;;;;;;4991808;28;90060;-81
2022/03/21 11:10:37;;;;;;;79.30;54.28;;;20.30;48.00;;;;;;4985162;28;94705;-80
2022/03/21 11:13:05;;;;;;;77.75;54.38;;;20.30;47.90;;;;;;4992512;28;90261;-80
2022/03/21 11:15:35;;;;;;;78.50;54.47;;;20.40;47.80;;;;;;4982089;28;90588;-82
2022/03/21 11:18:07;;;;;;;78.05;54.42;;;20.50;47.70;;;;;;4992400;28;91889;-82
2022/03/21 11:20:34;;;;;;;79.05;54.80;;;20.50;47.50;;;;;;4976386;28;90964;-80
2022/03/21 11:23:00;;;;;;;80.30;55.00;;;20.50;47.20;;;;;;4985674;28;90037;-78
2022/03/21 11:25:35;;;;;;;78.50;54.22;;;20.60;47.30;;;;;;4986179;28;92202;-79
2022/03/21 11:28:04;;;;;;;82.40;55.50;;;20.60;47.30;;;;;;4988940;28;89967;-79
2022/03/21 11:31:07;;;;;;;80.82;54.95;;;20.70;47.20;;;;;;4968800;28;91852;-78
2022/03/21 11:34:10;;;;;;;80.95;55.13;;;20.80;47.10;;;;;;4967162;28;90584;-80
2022/03/21 11:36:52;;;;;;;87.85;56.33;;;20.80;47.00;;;;;;4975001;28;89764;-79
2022/03/21 11:39:36;;;;;;;91.40;56.08;;;20.80;46.90;;;;;;4973891;28;90738;-78
2022/03/21 11:42:09;;;;;;;87.57;56.20;;;20.90;46.80;;;;;;4989394;28;90029;-80
2022/03/21 11:45:25;;;;;;;88.30;56.07;;;20.90;46.80;;;;;;4995482;22;93912;-80
2022/03/21 11:48:16;;;;;;;88.10;56.28;;;21.00;46.80;;;;;;5006795;27;90245;-80
2022/03/21 11:50:44;;;;;;;90.60;57.05;;;21.00;46.70;;;;;;5007579;27;89994;-79
2022/03/21 11:53:13;;;;;;;94.60;57.28;;;21.00;46.80;;;;;;5006449;27;92503;-80
2022/03/21 11:55:42;;;;;;;90.88;57.13;;;21.10;46.70;;;;;;4997608;27;99639;-82
2022/03/21 11:58:36;;;;;;;89.43;57.20;;;21.10;46.60;;;;;;5001441;27;91616;-80
2022/03/21 12:01:18;;;;;;;87.53;57.00;;;21.10;46.70;;;;;;4998678;27;89804;-80
2022/03/21 12:03:44;;;;;;;89.25;57.15;;;21.10;46.60;;;;;;5001603;27;90585;-80
2022/03/21 12:06:31;;;;;;;87.93;56.72;;;21.10;46.50;;;;;;5009286;27;89923;-82
2022/03/21 12:09:09;;;;;;;89.75;57.60;;;21.20;46.50;;;;;;5027756;27;89572;-82
2022/03/21 12:11:38;;;;;;;89.72;56.97;;;21.20;46.50;;;;;;5018595;27;94892;-81
2022/03/21 12:14:23;;;;;;;88.55;57.25;;;21.20;46.30;;;;;;5022855;28;91324;-78
2022/03/21 12:17:01;;;;;;;87.22;56.97;;;21.20;46.40;;;;;;5022070;27;89550;-79
2022/03/21 12:19:48;;;;;;;88.30;57.28;;;21.20;46.30;;;;;;5016264;27;90431;-78
2022/03/21 12:22:29;;;;;;;87.75;57.33;;;21.30;46.40;;;;;;5022914;27;92719;-79
2022/03/21 12:25:20;;;;;;;87.68;57.67;;;21.30;46.30;;;;;;5027857;27;90358;-79
2022/03/21 12:31:27;;;;;;;87.80;56.78;;;21.30;46.20;;;;;;4996044;27;89353;-77
2022/03/21 12:34:13;;;;;;;87.43;57.05;;;21.30;46.00;;;;;;5018451;27;93077;-79
2022/03/21 12:36:40;;;;;;;88.05;57.30;;;21.30;46.00;;;;;;4999200;27;93028;-79
2022/03/21 12:39:18;;;;;;;89.72;57.67;;;21.30;46.10;;;;;;4991510;27;90910;-78
2022/03/21 12:41:45;;;;;;;91.13;56.92;;;21.30;46.00;;;;;;4978336;27;90770;-77
2022/03/21 12:44:13;;;;;;;87.90;57.47;;;21.40;46.00;;;;;;4979957;27;90628;-79
2022/03/21 12:46:39;;;;;;;91.38;57.28;;;21.40;46.00;;;;;;4979659;27;91027;-79
2022/03/21 12:49:04;;;;;;;88.53;56.83;;;21.40;46.70;;;;;;4976647;27;90510;-75
2022/03/21 12:51:34;;;;;;;86.65;56.47;;;21.40;45.50;;;;;;4986819;27;90023;-78
2022/03/21 12:54:03;;;;;;;87.85;56.95;;;21.50;46.20;;;;;;4986709;27;89792;-79
2022/03/21 12:56:30;;;;;;;93.35;57.50;;;21.50;46.00;;;;;;4982678;27;89826;-81